aviador You're here:

SMJP Decoded Metar

ZANDERY in SURINAM
Report Time2017-09-20 07:00:00
UTC Time2017-09-20 07:34:48
Flight Rules vfr VFR
WindCalm
Visibility9999 m
Phenomena:N/A
Clouds:N/A
Expected CloudBase > 400 ft AGL from Temp-Dew spread
CeilingNone
Temp25°C (ISA +10)
Dew Point24°C (94% RH)
QNH1012 hPa
Density Alt1,647 ft
Elevation52 ft
Report Wrong Elevation
Raw Report
METAR SMJP 200700Z 00000KT CAVOK 25/24 Q1012 NOSIG=

Extra information for SMJP:More info

Metar Taf Metar & Taf Last 4 Metars F.Rules Stats Wind Profile Meteogram Temp Stats Airport Information Weather charts Add Link Nearby VenuesMetar ALERT Operation Metar Decoded Social comments